Time;durP1;ratioP1;P1;durP2;ratioP2;P2;SDS_P1;SDS_P2;PMS_P1;PMS_P2;Temp;Humidity;BMP_temperature;BMP_pressure;BME280_temperature;BME280_humidity;BME280_pressure;Samples;Min_cycle;Max_cycle;Signal;HPM_P1;HPM_P2
2022/09/11 00:01:13;;;;;;;8.00;3.03;;;;;;;14.31;85.32;101169.56;5046185;28;20380;-48
2022/09/11 00:03:42;;;;;;;6.60;3.72;;;;;;;14.31;85.58;101174.31;5068578;28;20441;-45
2022/09/11 00:06:12;;;;;;;4.65;3.22;;;;;;;14.29;85.52;101173.88;5062623;28;20040;-43
2022/09/11 00:08:40;;;;;;;10.23;3.20;;;;;;;14.26;85.48;101178.19;5066281;28;20049;-44
2022/09/11 00:11:08;;;;;;;7.88;3.13;;;;;;;14.26;85.56;101177.38;5067689;28;20098;-43
2022/09/11 00:13:36;;;;;;;8.25;3.72;;;;;;;14.28;85.54;101175.84;5071068;28;20383;-42
2022/09/11 00:16:06;;;;;;;5.05;3.70;;;;;;;14.26;85.43;101175.41;5068060;28;20509;-45
2022/09/11 00:18:36;;;;;;;9.77;3.35;;;;;;;14.23;85.75;101169.72;5052718;28;20055;-48
2022/09/11 00:21:06;;;;;;;10.10;3.42;;;;;;;14.22;85.61;101166.13;5065968;28;20445;-42
2022/09/11 00:23:33;;;;;;;8.10;3.85;;;;;;;14.18;85.85;101168.03;5052384;28;20051;-45
2022/09/11 00:26:02;;;;;;;3.83;2.90;;;;;;;14.19;85.83;101169.63;5066947;28;20048;-43
2022/09/11 00:28:29;;;;;;;6.53;3.35;;;;;;;14.16;85.75;101169.56;5070431;28;20052;-43
2022/09/11 00:31:04;;;;;;;11.18;2.97;;;;;;;14.13;85.97;101182.22;5070449;28;20420;-47
2022/09/11 00:33:32;;;;;;;7.13;3.33;;;;;;;14.15;85.98;101165.13;5055981;28;20068;-44
2022/09/11 00:36:02;;;;;;;6.78;3.13;;;;;;;14.13;86.10;101161.91;5064877;28;20048;-42
2022/09/11 00:38:31;;;;;;;9.23;4.28;;;;;;;14.06;86.18;101164.53;5067061;28;20072;-42
2022/09/11 00:41:00;;;;;;;5.80;3.63;;;;;;;14.02;86.59;101167.22;5065469;28;20056;-42
2022/09/11 00:43:29;;;;;;;7.80;3.05;;;;;;;13.99;86.57;101168.72;5062502;28;20051;-44
2022/09/11 00:46:02;;;;;;;8.98;3.92;;;;;;;14.01;86.83;101160.81;5066460;28;20045;-42
2022/09/11 00:48:33;;;;;;;7.30;3.10;;;;;;;14.00;86.55;101159.19;5069260;28;20123;-43
2022/09/11 00:51:03;;;;;;;5.10;2.72;;;;;;;13.96;86.66;101151.94;5068753;28;20093;-43
2022/09/11 00:53:35;;;;;;;9.07;3.75;;;;;;;13.95;86.84;101151.13;5065664;28;20455;-46
2022/09/11 00:56:06;;;;;;;8.93;3.63;;;;;;;13.90;87.08;101148.59;5063803;28;20388;-46
2022/09/11 00:58:38;;;;;;;5.18;3.00;;;;;;;13.87;86.96;101157.66;5065405;28;20544;-43
2022/09/11 01:01:05;;;;;;;7.47;3.10;;;;;;;13.86;87.04;101146.91;5064629;28;20441;-43
2022/09/11 01:03:31;;;;;;;5.15;3.33;;;;;;;13.84;87.10;101147.25;5062256;28;20045;-47
2022/09/11 01:05:59;;;;;;;6.03;3.03;;;;;;;13.82;87.26;101146.78;5061625;28;20075;-42
2022/09/11 01:08:26;;;;;;;5.65;2.75;;;;;;;13.81;87.02;101136.03;5063925;28;20041;-46
2022/09/11 01:11:15;;;;;;;10.07;3.10;;;;;;;13.79;87.29;101138.38;5064087;28;20040;-43
2022/09/11 01:14:05;;;;;;;5.93;3.55;;;;;;;13.80;87.42;101139.97;5059831;28;20457;-43
2022/09/11 01:16:39;;;;;;;9.95;4.22;;;;;;;13.81;87.27;101139.63;5069148;28;20619;-47
2022/09/11 01:19:25;;;;;;;7.47;3.47;;;;;;;13.78;87.31;101129.19;5065689;28;20573;-47
2022/09/11 01:22:40;;;;;;;9.73;4.05;;;;;;;13.75;87.38;101121.56;5069360;28;20051;-42
2022/09/11 01:25:37;;;;;;;14.80;4.03;;;;;;;13.71;87.41;101117.09;5063016;28;20048;-47
2022/09/11 01:28:10;;;;;;;8.95;3.75;;;;;;;13.69;87.55;101117.41;5060090;28;20041;-42
2022/09/11 01:30:46;;;;;;;7.38;3.88;;;;;;;13.69;87.66;101125.78;5065920;28;20037;-42
2022/09/11 01:33:29;;;;;;;9.88;4.18;;;;;;;13.67;87.54;101122.53;5060902;28;20557;-44
2022/09/11 01:36:02;;;;;;;5.78;3.60;;;;;;;13.65;87.52;101122.09;5057068;28;20066;-44
2022/09/11 01:38:45;;;;;;;7.05;3.63;;;;;;;13.64;87.93;101120.47;5065446;28;20045;-46
2022/09/11 01:41:20;;;;;;;7.75;3.97;;;;;;;13.62;87.88;101125.59;5069378;28;20043;-44
2022/09/11 01:44:02;;;;;;;14.73;4.80;;;;;;;13.62;88.06;101131.16;5068163;28;20040;-47
2022/09/11 01:46:35;;;;;;;7.55;4.45;;;;;;;13.62;88.15;101130.34;5065352;28;20052;-42
2022/09/11 01:49:14;;;;;;;10.30;5.00;;;;;;;13.58;88.23;101121.88;5061641;28;20147;-46
2022/09/11 01:51:41;;;;;;;9.32;4.85;;;;;;;13.58;88.31;101127.44;5069876;28;20051;-42
2022/09/11 01:54:15;;;;;;;9.60;4.80;;;;;;;13.59;88.42;101115.16;5067385;28;20044;-42
2022/09/11 01:56:50;;;;;;;14.68;6.15;;;;;;;13.57;88.51;101106.38;5062338;28;20048;-43
2022/09/11 01:59:26;;;;;;;10.15;4.97;;;;;;;13.56;88.67;101099.19;5065068;28;20058;-42
2022/09/11 02:02:00;;;;;;;11.93;5.00;;;;;;;13.55;88.65;101096.78;5066945;28;20044;-43
2022/09/11 02:04:32;;;;;;;13.27;5.18;;;;;;;13.53;89.14;101082.41;5059176;28;20071;-47
2022/09/11 02:07:06;;;;;;;10.15;4.88;;;;;;;13.55;89.22;101082.88;5066195;28;20032;-41
2022/09/11 02:09:53;;;;;;;10.45;4.57;;;;;;;13.54;89.42;101082.03;5062819;28;20045;-44
2022/09/11 02:12:24;;;;;;;11.02;3.70;;;;;;;13.54;89.47;101084.81;5062133;28;20040;-46
2022/09/11 02:14:52;;;;;;;13.95;5.55;;;;;;;13.54;89.51;101073.69;5064473;28;20090;-45
2022/09/11 02:17:57;;;;;;;9.00;3.53;;;;;;;13.56;89.86;101071.38;5046685;28;20044;-43
2022/09/11 02:20:24;;;;;;;7.30;3.38;;;;;;;13.56;89.86;101073.34;5063651;28;20044;-45
2022/09/11 02:22:56;;;;;;;8.05;3.22;;;;;;;13.56;89.92;101068.59;5060763;28;20110;-42
2022/09/11 02:25:23;;;;;;;8.50;3.35;;;;;;;13.57;90.02;101067.44;5065813;28;20432;-41
2022/09/11 02:27:50;;;;;;;6.45;3.42;;;;;;;13.55;90.23;101055.84;5064370;28;20036;-41
2022/09/11 02:30:17;;;;;;;5.88;3.33;;;;;;;13.56;90.10;101048.28;5065233;28;20051;-45
2022/09/11 02:32:44;;;;;;;10.50;4.78;;;;;;;13.52;90.27;101045.44;5067475;28;20040;-42
2022/09/11 02:35:11;;;;;;;6.60;3.08;;;;;;;13.54;90.42;101045.06;5060805;28;20052;-42
2022/09/11 02:37:51;;;;;;;5.97;3.53;;;;;;;13.53;90.71;101033.13;5064919;28;20133;-43
2022/09/11 02:40:25;;;;;;;6.05;3.40;;;;;;;13.50;90.68;101030.28;5037086;28;20402;-45
2022/09/11 02:43:24;;;;;;;8.55;3.60;;;;;;;13.45;90.74;101028.53;5065691;28;20040;-43
2022/09/11 02:46:15;;;;;;;7.63;3.60;;;;;;;13.39;90.98;101027.22;5063758;28;20051;-47
2022/09/11 02:49:05;;;;;;;5.30;3.95;;;;;;;13.36;91.04;101025.16;5065749;28;20127;-40
2022/09/11 02:51:47;;;;;;;4.13;3.47;;;;;;;13.34;91.07;101022.69;5062774;28;20401;-44
2022/09/11 02:54:32;;;;;;;10.98;3.85;;;;;;;13.33;91.10;101018.31;5066773;28;20518;-41
2022/09/11 02:57:20;;;;;;;13.43;4.18;;;;;;;13.35;91.43;101026.31;5062808;28;20491;-45
2022/09/11 02:59:56;;;;;;;7.25;3.55;;;;;;;13.37;91.35;101012.84;5061180;28;20040;-40
2022/09/11 03:02:23;;;;;;;11.20;3.67;;;;;;;13.38;91.26;101009.72;5075269;22;20065;-41
2022/09/11 03:04:50;;;;;;;5.38;2.85;;;;;;;13.40;91.43;101017.69;5043789;28;20053;-42
2022/09/11 03:07:17;;;;;;;8.73;3.00;;;;;;;13.42;91.56;101012.59;5046630;28;20042;-44
2022/09/11 03:09:43;;;;;;;7.22;4.38;;;;;;;13.42;91.63;101005.03;5048897;28;20048;-41
2022/09/11 03:12:10;;;;;;;8.18;3.08;;;;;;;13.43;91.93;101000.28;5044797;28;20045;-41
2022/09/11 03:14:37;;;;;;;3.97;2.17;;;;;;;13.45;91.91;101003.50;5042192;28;20045;-42
2022/09/11 03:17:04;;;;;;;7.00;2.53;;;;;;;13.46;91.89;100999.56;5043395;28;20059;-43
2022/09/11 03:19:31;;;;;;;5.85;2.60;;;;;;;13.47;92.02;101001.22;5050503;28;20041;-41
2022/09/11 03:21:58;;;;;;;6.13;2.28;;;;;;;13.48;91.89;100999.22;5049892;28;20053;-41
2022/09/11 03:24:25;;;;;;;4.90;2.28;;;;;;;13.48;92.05;100996.44;5040642;28;20048;-44
2022/09/11 03:26:52;;;;;;;6.38;2.10;;;;;;;13.50;91.96;100999.69;5051291;28;20445;-41
2022/09/11 03:29:19;;;;;;;5.30;2.08;;;;;;;13.48;91.94;100997.25;5050870;28;20136;-41
2022/09/11 03:31:46;;;;;;;5.22;1.95;;;;;;;13.48;92.01;100991.69;5049815;28;20539;-41
2022/09/11 03:34:13;;;;;;;5.13;2.00;;;;;;;13.46;91.88;100988.47;5048834;28;20542;-41
2022/09/11 03:36:39;;;;;;;4.88;1.70;;;;;;;13.45;92.02;100986.81;5060376;28;20560;-41
2022/09/11 03:39:06;;;;;;;4.20;2.25;;;;;;;13.46;91.82;100993.19;5049129;28;20041;-41
2022/09/11 03:41:41;;;;;;;3.97;1.58;;;;;;;13.45;91.84;100988.81;5050813;28;20433;-41
2022/09/11 03:44:08;;;;;;;3.72;1.85;;;;;;;13.44;91.94;100979.66;5050050;28;20037;-41
2022/09/11 03:46:35;;;;;;;6.88;2.15;;;;;;;13.43;91.74;100980.81;5050763;28;20517;-41
2022/09/11 03:49:05;;;;;;;3.85;2.55;;;;;;;13.41;91.85;100981.19;5055503;28;20063;-41
2022/09/11 03:51:32;;;;;;;5.05;2.15;;;;;;;13.41;91.81;100980.38;5047731;28;20091;-41
2022/09/11 03:53:59;;;;;;;3.63;1.50;;;;;;;13.38;92.00;100981.09;5050263;28;20402;-42
2022/09/11 03:56:27;;;;;;;4.20;1.20;;;;;;;13.38;91.83;100970.78;5049352;28;20186;-41
2022/09/11 03:59:01;;;;;;;3.42;1.35;;;;;;;13.39;91.85;100963.25;5047629;28;20053;-41
2022/09/11 04:01:28;;;;;;;4.05;1.42;;;;;;;13.40;91.84;100964.84;5048536;28;20057;-46
2022/09/11 04:03:58;;;;;;;6.10;3.85;;;;;;;13.41;91.79;100960.91;5052402;28;20135;-41
2022/09/11 04:06:24;;;;;;;7.40;1.52;;;;;;;13.39;91.70;100961.28;5047217;28;20051;-41
2022/09/11 04:08:51;;;;;;;10.18;1.75;;;;;;;13.40;91.82;100964.84;5048563;28;20441;-41
2022/09/11 04:11:21;;;;;;;7.22;2.00;;;;;;;13.42;91.76;100956.97;5048856;28;20060;-41
2022/09/11 04:13:48;;;;;;;5.53;2.80;;;;;;;13.40;91.86;100951.75;5048557;28;20045;-46
2022/09/11 04:16:17;;;;;;;3.97;1.95;;;;;;;13.40;91.90;100956.50;5046434;28;20049;-41
2022/09/11 04:18:45;;;;;;;7.65;2.47;;;;;;;13.40;91.86;100960.09;5048773;28;20485;-41
2022/09/11 04:21:14;;;;;;;8.02;1.85;;;;;;;13.40;92.08;100956.50;5052333;28;20053;-41
2022/09/11 04:23:41;;;;;;;5.53;1.83;;;;;;;13.41;92.14;100952.56;5038434;28;20037;-41
2022/09/11 04:26:17;;;;;;;4.03;2.08;;;;;;;13.41;92.10;100949.78;5044752;28;20049;-41
2022/09/11 04:28:44;;;;;;;4.38;2.20;;;;;;;13.39;92.12;100960.47;5047712;28;20048;-41
2022/09/11 04:31:12;;;;;;;5.25;2.10;;;;;;;13.38;92.38;100958.84;5046650;28;20041;-42
2022/09/11 04:33:39;;;;;;;8.00;2.53;;;;;;;13.36;92.33;100941.72;5049691;28;20560;-41
2022/09/11 04:36:08;;;;;;;8.07;2.38;;;;;;;13.35;92.58;100935.34;5049624;28;20145;-41
2022/09/11 04:38:36;;;;;;;3.60;2.40;;;;;;;13.34;92.58;100935.72;5044735;28;20437;-41
2022/09/11 04:41:05;;;;;;;4.80;2.55;;;;;;;13.31;92.79;100930.88;5048609;28;20056;-41
2022/09/11 04:43:34;;;;;;;5.07;2.47;;;;;;;13.31;92.92;100923.34;5048570;28;20041;-46
2022/09/11 04:46:03;;;;;;;5.70;3.10;;;;;;;13.31;92.84;100919.75;5046321;28;20056;-40
2022/09/11 04:48:30;;;;;;;5.97;3.45;;;;;;;13.30;92.90;100926.47;5048280;28;20048;-44
2022/09/11 04:51:05;;;;;;;9.80;3.55;;;;;;;13.30;92.86;100918.13;5048148;28;20095;-41
2022/09/11 04:53:32;;;;;;;4.55;3.00;;;;;;;13.29;93.22;100925.66;5047546;28;20444;-41
2022/09/11 04:56:11;;;;;;;5.32;2.72;;;;;;;13.31;93.28;100928.09;5047632;28;20490;-41
2022/09/11 04:58:38;;;;;;;7.05;4.15;;;;;;;13.31;93.49;100922.53;5048177;28;20540;-41
2022/09/11 05:01:14;;;;;;;4.78;2.97;;;;;;;13.31;93.47;100928.91;5044964;28;20078;-41
2022/09/11 05:03:44;;;;;;;13.20;3.42;;;;;;;13.32;93.65;100926.91;5046970;28;20041;-43
2022/09/11 05:06:15;;;;;;;5.85;3.00;;;;;;;13.32;93.63;100926.91;5046998;28;20408;-41
2022/09/11 05:08:43;;;;;;;12.65;2.83;;;;;;;13.32;93.78;100932.47;5046857;28;20486;-41
2022/09/11 05:11:15;;;;;;;3.90;2.95;;;;;;;13.31;94.00;100931.69;5049935;28;20548;-41
2022/09/11 05:13:43;;;;;;;5.50;2.72;;;;;;;13.32;94.01;100936.06;5051674;28;20514;-42
2022/09/11 05:16:12;;;;;;;5.95;2.33;;;;;;;13.34;94.00;100939.28;5044864;28;20504;-41
2022/09/11 05:18:41;;;;;;;6.68;2.85;;;;;;;13.37;94.09;100940.53;5042205;28;20067;-42
2022/09/11 05:21:12;;;;;;;5.47;2.60;;;;;;;13.37;94.35;100940.53;5049629;28;20441;-41
2022/09/11 05:23:40;;;;;;;5.63;3.40;;;;;;;13.39;94.28;100943.78;5046967;28;20053;-43
2022/09/11 05:26:19;;;;;;;7.78;2.55;;;;;;;13.39;94.53;100944.59;5062459;28;20093;-41
2022/09/11 05:28:46;;;;;;;3.72;2.60;;;;;;;13.41;94.45;100941.44;5046255;28;20398;-42
2022/09/11 05:31:17;;;;;;;5.25;2.50;;;;;;;13.43;94.52;100939.09;5046032;28;20490;-41
2022/09/11 05:33:44;;;;;;;7.50;2.90;;;;;;;13.43;94.74;100934.34;5048024;28;20661;-41
2022/09/11 05:36:13;;;;;;;4.50;2.67;;;;;;;13.46;95.03;100929.22;5047012;28;20090;-41
2022/09/11 05:38:39;;;;;;;5.93;3.15;;;;;;;13.48;95.00;100927.69;5046327;28;20398;-41
2022/09/11 05:41:10;;;;;;;5.68;2.92;;;;;;;13.51;94.90;100932.56;5043631;28;20048;-41
2022/09/11 05:43:37;;;;;;;4.28;3.70;;;;;;;13.53;94.99;100923.88;5045312;28;20047;-42
2022/09/11 05:46:05;;;;;;;5.75;3.25;;;;;;;13.57;94.82;100933.09;5045179;28;20119;-41
2022/09/11 05:48:34;;;;;;;12.77;4.05;;;;;;;13.61;95.12;100928.44;5044988;28;20049;-41
2022/09/11 05:51:08;;;;;;;5.50;3.10;;;;;;;13.63;95.20;100921.34;5049273;28;20075;-41
2022/09/11 05:53:36;;;;;;;4.03;2.95;;;;;;;13.66;95.20;100920.59;5045866;28;20049;-47
2022/09/11 05:56:06;;;;;;;9.35;3.72;;;;;;;13.67;95.18;100925.00;5047577;28;20083;-41
2022/09/11 05:58:33;;;;;;;10.05;3.72;;;;;;;13.68;95.05;100918.28;5044239;28;20457;-41
2022/09/11 06:01:08;;;;;;;6.65;3.58;;;;;;;13.70;95.48;100915.94;5046699;28;20410;-41
2022/09/11 06:03:38;;;;;;;9.00;3.47;;;;;;;13.71;95.52;100912.00;5057808;28;20083;-41
2022/09/11 06:06:07;;;;;;;9.68;4.38;;;;;;;13.76;95.43;100919.25;5046353;28;20387;-45
2022/09/11 06:08:35;;;;;;;5.60;3.47;;;;;;;13.78;95.75;100914.94;5048028;28;20057;-41
2022/09/11 06:11:06;;;;;;;12.57;6.00;;;;;;;13.79;95.79;100913.75;5042286;28;20041;-42
2022/09/11 06:13:35;;;;;;;8.85;5.15;;;;;;;13.82;95.68;100910.22;5044449;28;20757;-41
2022/09/11 06:16:02;;;;;;;9.88;4.50;;;;;;;13.86;95.86;100910.31;5046721;28;20049;-41
2022/09/11 06:18:29;;;;;;;5.90;5.10;;;;;;;13.90;96.03;100917.56;5046894;28;20138;-41
2022/09/11 06:21:18;;;;;;;10.45;5.65;;;;;;;13.93;96.05;100913.25;5047169;28;20037;-41
2022/09/11 06:23:47;;;;;;;11.15;5.15;;;;;;;13.96;95.96;100907.78;5047260;28;20041;-41
2022/09/11 06:26:16;;;;;;;10.73;5.43;;;;;;;14.02;96.21;100923.03;5041757;28;20129;-44
2022/09/11 06:28:43;;;;;;;13.88;5.70;;;;;;;14.06;95.96;100913.97;5045555;28;20037;-41
2022/09/11 06:31:15;;;;;;;10.45;5.65;;;;;;;14.11;96.23;100902.53;5045170;28;20053;-41
2022/09/11 06:33:42;;;;;;;;;;;;;;;14.15;96.21;100914.53;5048681;28;20049;-41
2022/09/11 06:36:11;;;;;;;8.18;4.40;;;;;;;14.18;96.00;100913.81;5042998;28;19920;-45
2022/09/11 06:38:38;;;;;;;8.93;4.90;;;;;;;14.20;96.13;100912.28;5051629;28;20525;-41
2022/09/11 06:41:11;;;;;;;7.75;4.88;;;;;;;14.23;96.15;100907.94;5047280;28;20105;-41
2022/09/11 06:43:38;;;;;;;5.72;4.70;;;;;;;14.23;96.34;100917.13;5048153;28;20048;-41
2022/09/11 06:46:13;;;;;;;6.45;3.88;;;;;;;14.26;96.45;100921.16;5043903;28;20052;-42
2022/09/11 06:48:41;;;;;;;9.55;4.05;;;;;;;14.26;96.42;100912.78;5047525;28;20045;-42
2022/09/11 06:51:10;;;;;;;8.23;3.70;;;;;;;14.27;96.30;100914.41;5044868;28;20071;-42
2022/09/11 06:53:39;;;;;;;6.97;3.22;;;;;;;14.28;96.44;100919.59;5043787;28;20116;-42
2022/09/11 06:56:08;;;;;;;5.50;3.85;;;;;;;14.29;96.41;100918.44;5049842;28;20045;-42
2022/09/11 06:58:35;;;;;;;7.95;3.60;;;;;;;14.33;96.46;100926.88;5046040;28;20041;-41
2022/09/11 07:01:04;;;;;;;8.80;3.58;;;;;;;14.35;96.46;100919.00;5048381;28;20075;-42
2022/09/11 07:03:31;;;;;;;10.88;3.60;;;;;;;14.37;96.72;100919.44;5043965;28;20049;-42
2022/09/11 07:05:59;;;;;;;8.57;4.00;;;;;;;14.38;96.88;100918.22;5046305;28;20044;-43
2022/09/11 07:08:26;;;;;;;8.25;3.83;;;;;;;14.39;96.91;100906.75;5052220;28;20053;-42
2022/09/11 07:10:53;;;;;;;6.25;4.03;;;;;;;14.41;97.06;100915.53;5052390;28;20063;-41
2022/09/11 07:13:23;;;;;;;6.32;3.72;;;;;;;14.44;97.12;100914.00;5052082;28;20060;-45
2022/09/11 07:15:59;;;;;;;13.38;4.05;;;;;;;14.48;97.31;100909.31;5051352;28;20064;-41
2022/09/11 07:18:25;;;;;;;9.75;4.20;;;;;;;14.50;97.25;100916.13;5045427;28;20049;-41
2022/09/11 07:20:52;;;;;;;10.07;4.63;;;;;;;14.54;97.44;100903.06;5046260;28;20373;-47
2022/09/11 07:23:19;;;;;;;11.55;4.40;;;;;;;14.57;97.54;100899.53;5048789;28;20048;-42
2022/09/11 07:25:47;;;;;;;8.23;3.85;;;;;;;14.60;97.46;100900.78;5051630;28;20140;-42
2022/09/11 07:28:14;;;;;;;9.30;4.32;;;;;;;14.62;97.59;100896.47;5052289;28;20053;-41
2022/09/11 07:30:40;;;;;;;9.85;4.35;;;;;;;14.66;97.81;100896.53;5049313;28;20049;-41
2022/09/11 07:33:07;;;;;;;5.22;4.43;;;;;;;14.70;97.68;100891.81;5047319;28;20426;-42
2022/09/11 07:35:36;;;;;;;6.60;4.40;;;;;;;14.71;97.82;100885.09;5046767;28;20495;-42
2022/09/11 07:38:03;;;;;;;9.60;4.50;;;;;;;14.75;97.80;100887.91;5042664;28;20504;-41
2022/09/11 07:40:30;;;;;;;8.23;4.55;;;;;;;14.77;97.83;100883.63;5045471;28;20048;-43
2022/09/11 07:42:56;;;;;;;7.55;4.35;;;;;;;14.79;97.95;100886.00;5050093;28;20037;-43
2022/09/11 07:45:23;;;;;;;11.02;5.13;;;;;;;14.80;97.86;100877.28;5048831;28;20052;-44
2022/09/11 07:47:50;;;;;;;13.88;6.30;;;;;;;14.82;97.98;100877.72;5050410;28;20115;-42
2022/09/11 07:50:16;;;;;;;12.50;4.70;;;;;;;14.82;98.14;100872.16;5050611;28;20514;-42
2022/09/11 07:52:43;;;;;;;15.43;5.22;;;;;;;14.83;98.21;100868.16;5050779;28;20048;-42
2022/09/11 07:55:10;;;;;;;12.30;6.00;;;;;;;14.84;98.18;100869.78;5049533;28;20502;-43
2022/09/11 07:57:36;;;;;;;13.68;5.85;;;;;;;14.84;98.47;100878.16;5044926;28;21590;-43
2022/09/11 08:00:04;;;;;;;8.60;5.28;;;;;;;14.84;98.47;100869.78;5040745;28;20042;-43
2022/09/11 08:02:31;;;;;;;12.23;6.28;;;;;;;14.85;98.60;100860.25;5047543;28;20049;-47
2022/09/11 08:04:59;;;;;;;11.13;6.38;;;;;;;14.84;98.78;100853.06;5048381;28;20067;-43
2022/09/11 08:07:25;;;;;;;7.55;5.53;;;;;;;14.86;99.03;100867.44;5046011;28;20136;-43
2022/09/11 08:09:52;;;;;;;14.38;6.30;;;;;;;14.89;99.03;100857.53;5049405;28;20450;-40
2022/09/11 08:12:39;;;;;;;14.32;5.95;;;;;;;14.91;99.02;100852.38;5045202;28;20098;-43
2022/09/11 08:15:06;;;;;;;12.85;6.55;;;;;;;14.94;99.30;100858.03;5054712;28;20049;-44
2022/09/11 08:17:33;;;;;;;8.63;5.93;;;;;;;14.99;99.37;100851.31;5050976;28;20103;-43
2022/09/11 08:20:00;;;;;;;12.23;5.55;;;;;;;15.01;99.41;100852.56;5040425;28;20041;-43
2022/09/11 08:22:27;;;;;;;7.47;4.85;;;;;;;15.05;99.60;100844.25;5046219;28;20033;-47
2022/09/11 08:24:53;;;;;;;12.13;5.65;;;;;;;15.08;99.52;100847.13;5044388;28;20045;-44
2022/09/11 08:27:20;;;;;;;11.02;5.45;;;;;;;15.14;99.77;100848.41;5045813;28;20053;-43
2022/09/11 08:29:56;;;;;;;10.35;5.47;;;;;;;15.18;99.86;100840.91;5049615;28;20100;-44
2022/09/11 08:32:26;;;;;;;14.98;6.03;;;;;;;15.23;99.86;100832.22;5050860;28;20065;-43
2022/09/11 08:34:53;;;;;;;14.48;4.82;;;;;;;15.27;99.89;100838.66;5051220;28;20045;-44
2022/09/11 08:37:21;;;;;;;14.90;5.22;;;;;;;15.32;100.00;100845.09;5049631;28;20501;-44
2022/09/11 08:39:47;;;;;;;11.77;4.38;;;;;;;15.35;100.00;100834.00;5048945;28;20457;-46
2022/09/11 08:42:16;;;;;;;6.55;4.70;;;;;;;15.39;100.00;100831.25;5027295;28;20090;-46
2022/09/11 08:44:48;;;;;;;11.77;5.05;;;;;;;15.43;100.00;100830.16;5004367;28;20061;-47
2022/09/11 08:47:17;;;;;;;;;;;;;;;15.44;99.99;100820.56;5006393;28;20045;-46
2022/09/11 08:49:56;;;;;;;14.52;6.10;;;;;;;15.49;99.98;100816.72;5005813;28;19929;-47
2022/09/11 08:52:23;;;;;;;9.68;5.53;;;;;;;15.52;100.00;100821.50;5010638;28;20081;-50
2022/09/11 08:54:54;;;;;;;14.95;6.13;;;;;;;15.55;100.00;100820.75;5044169;28;20045;-43
2022/09/11 08:57:51;;;;;;;8.15;4.82;;;;;;;15.58;100.00;100822.81;5043780;28;20049;-48
2022/09/11 09:00:30;;;;;;;10.57;5.38;;;;;;;15.59;100.00;100824.44;5041127;28;20041;-43
2022/09/11 09:03:29;;;;;;;15.35;6.30;;;;;;;15.62;100.00;100816.06;5044847;28;20057;-43
2022/09/11 09:06:14;;;;;;;8.68;5.10;;;;;;;15.65;100.00;100817.31;5048160;28;20040;-45
2022/09/11 09:09:00;;;;;;;8.95;5.13;;;;;;;15.67;100.00;100823.34;5038809;28;20069;-47
2022/09/11 09:12:08;;;;;;;10.23;4.97;;;;;;;15.69;100.00;100819.00;5046140;28;20131;-43
2022/09/11 09:14:48;;;;;;;10.88;5.15;;;;;;;15.71;100.00;100825.00;5044487;28;20059;-47
2022/09/11 09:17:24;;;;;;;9.95;6.10;;;;;;;15.74;100.00;100817.84;5037214;28;20049;-45
2022/09/11 09:19:59;;;;;;;6.78;5.00;;;;;;;15.79;100.00;100828.69;5041433;28;20695;-46
2022/09/11 09:22:49;;;;;;;7.32;4.55;;;;;;;15.81;100.00;100821.53;5038456;28;20060;-44
2022/09/11 09:25:21;;;;;;;8.60;5.20;;;;;;;15.83;100.00;100819.16;5041031;28;20135;-45
2022/09/11 09:28:17;;;;;;;8.98;5.78;;;;;;;15.86;100.00;100814.81;5041612;28;20123;-43
2022/09/11 09:30:49;;;;;;;9.55;4.50;;;;;;;15.90;100.00;100810.09;5022432;28;20059;-42
2022/09/11 09:33:50;;;;;;;9.38;4.82;;;;;;;15.94;100.00;100808.13;5041101;28;20044;-43
2022/09/11 09:36:26;;;;;;;8.60;4.90;;;;;;;15.97;100.00;100804.59;5019820;28;20057;-45
2022/09/11 09:38:53;;;;;;;8.93;5.82;;;;;;;16.00;100.00;100805.81;5043382;28;20110;-44
2022/09/11 09:41:35;;;;;;;7.50;5.63;;;;;;;16.05;100.00;100805.47;5040850;28;20985;-42
2022/09/11 09:44:03;;;;;;;;;;;;;;;16.07;100.00;100803.91;5039631;28;20091;-48
2022/09/11 09:46:48;;;;;;;7.28;5.28;;;;;;;16.12;100.00;100800.00;5034663;28;19963;-44
2022/09/11 09:49:22;;;;;;;9.88;4.70;;;;;;;16.13;100.00;100802.38;5039729;28;20044;-43
2022/09/11 09:51:50;;;;;;;10.52;5.38;;;;;;;16.18;100.00;100810.41;5037504;28;20546;-53
2022/09/11 09:54:21;;;;;;;12.73;5.38;;;;;;;16.22;100.00;100805.69;5041355;28;20483;-43
2022/09/11 09:57:04;;;;;;;10.43;5.53;;;;;;;16.28;100.00;100792.97;5040028;28;20510;-45
2022/09/11 09:59:38;;;;;;;9.40;6.20;;;;;;;16.32;100.00;100785.44;5040994;28;20094;-48
2022/09/11 10:02:06;;;;;;;11.35;5.40;;;;;;;16.35;100.00;100792.25;5038984;28;20092;-45
2022/09/11 10:04:33;;;;;;;12.15;5.70;;;;;;;16.37;100.00;100779.50;5039378;28;20029;-43
2022/09/11 10:07:21;;;;;;;15.07;6.03;;;;;;;16.42;100.00;100783.94;5005547;28;20109;-46
2022/09/11 10:10:01;;;;;;;14.20;5.30;;;;;;;16.43;100.00;100777.97;5004807;28;20056;-44
2022/09/11 10:12:31;;;;;;;11.20;5.97;;;;;;;16.42;100.00;100778.34;5003953;28;20048;-43
2022/09/11 10:14:59;;;;;;;12.93;5.07;;;;;;;16.40;100.00;100773.16;5005642;28;20049;-45
2022/09/11 10:17:28;;;;;;;10.25;4.90;;;;;;;16.37;100.00;100773.94;5005770;28;20064;-47
2022/09/11 10:20:17;;;;;;;13.95;5.50;;;;;;;16.33;100.00;100775.09;5004584;28;20037;-44
2022/09/11 10:22:49;;;;;;;11.23;5.38;;;;;;;16.29;100.00;100768.63;5024803;28;20033;-42
2022/09/11 10:25:28;;;;;;;8.35;4.53;;;;;;;16.24;100.00;100775.38;5039410;28;20052;-41
2022/09/11 10:28:04;;;;;;;10.38;5.05;;;;;;;16.21;100.00;100759.38;5042149;28;20056;-42
2022/09/11 10:30:31;;;;;;;11.90;4.35;;;;;;;16.16;100.00;100770.09;5039012;28;20041;-47
2022/09/11 10:33:02;;;;;;;7.63;4.60;;;;;;;16.07;100.00;100764.81;5041240;28;20048;-44
2022/09/11 10:35:31;;;;;;;19.73;6.38;;;;;;;16.05;100.00;100767.19;5038575;28;20048;-43
2022/09/11 10:38:11;;;;;;;12.60;6.15;;;;;;;16.02;100.00;100756.00;5017665;28;20056;-43
2022/09/11 10:40:39;;;;;;;12.55;4.85;;;;;;;15.98;100.00;100755.94;5019025;28;20108;-43
2022/09/11 10:43:23;;;;;;;12.77;5.63;;;;;;;15.95;100.00;100756.69;5018840;28;20159;-44
2022/09/11 10:46:24;;;;;;;10.20;4.07;;;;;;;15.89;100.00;100747.03;5018727;28;20057;-47
2022/09/11 10:48:58;;;;;;;7.53;4.00;;;;;;;15.86;100.00;100741.44;5020407;28;20487;-43
2022/09/11 10:51:28;;;;;;;11.95;4.15;;;;;;;15.82;100.00;100752.56;5020100;28;20384;-46
2022/09/11 10:53:59;;;;;;;8.50;4.03;;;;;;;15.79;100.00;100744.94;5020279;28;20045;-44
2022/09/11 10:56:26;;;;;;;8.80;4.57;;;;;;;15.78;100.00;100740.53;5015456;28;20052;-44
2022/09/11 10:59:02;;;;;;;24.23;5.90;;;;;;;15.78;100.00;100729.34;5020494;28;20049;-48
2022/09/11 11:01:29;;;;;;;10.60;4.43;;;;;;;15.78;100.00;100734.94;5020032;28;20135;-43
2022/09/11 11:03:56;;;;;;;15.32;4.47;;;;;;;15.78;100.00;100715.41;5019713;28;20772;-43
2022/09/11 11:06:39;;;;;;;12.10;4.60;;;;;;;15.76;100.00;100714.97;5011093;28;20045;-43
2022/09/11 11:09:18;;;;;;;14.00;5.57;;;;;;;15.74;100.00;100717.34;5019947;28;20056;-43
2022/09/11 11:11:59;;;;;;;11.25;3.75;;;;;;;15.71;100.00;100723.69;5021020;28;20045;-43
2022/09/11 11:14:54;;;;;;;9.70;4.53;;;;;;;15.66;100.00;100704.50;5019116;28;20060;-45
2022/09/11 11:17:44;;;;;;;15.40;3.28;;;;;;;15.62;100.00;100686.91;5021596;28;20041;-44
2022/09/11 11:20:41;;;;;;;9.05;2.67;;;;;;;15.54;100.00;100690.81;5019546;28;20056;-44
2022/09/11 11:23:52;;;;;;;5.03;2.15;;;;;;;15.47;100.00;100682.31;5019939;28;20549;-43
2022/09/11 11:26:35;;;;;;;6.95;3.00;;;;;;;15.43;100.00;100673.09;5017144;28;20045;-48
2022/09/11 11:29:10;;;;;;;8.15;3.28;;;;;;;15.41;100.00;100678.25;5021652;28;20496;-48
2022/09/11 11:31:59;;;;;;;11.05;3.70;;;;;;;15.37;100.00;100669.03;5020418;28;20049;-43
2022/09/11 11:34:32;;;;;;;7.72;2.55;;;;;;;15.36;100.00;100672.97;5022598;28;20045;-44
2022/09/11 11:37:13;;;;;;;10.75;2.90;;;;;;;15.33;100.00;100670.97;5024257;28;20052;-42
2022/09/11 11:40:18;;;;;;;7.03;2.30;;;;;;;15.27;100.00;100654.53;5020991;28;20458;-43
2022/09/11 11:43:00;;;;;;;9.07;2.40;;;;;;;15.19;100.00;100641.72;5025699;28;20060;-43
2022/09/11 11:45:37;;;;;;;12.32;3.58;;;;;;;15.15;100.00;100634.47;5025289;28;20049;-44
2022/09/11 11:48:19;;;;;;;11.30;2.90;;;;;;;15.14;100.00;100639.25;5023886;28;20508;-43